Old Saybrook, CT (06475)

9:07 AM EST on February 11, 2016 (GMT -0500)
APRSWXNET | | Change Station
CLOSE
Current Station
Personal Weather Station
Location: Westbrook, CT
Elevation: 98 ft
Nearby Weather Stations

Elev 98 ft 41.31 °N, 72.44 °W | Updated 26 minutes ago

Mostly Cloudy
Mostly Cloudy
24 °F
Feels Like 24 °F
N
3
Wind Variable Wind from North
Gusts 7.0 mph

Today
High -- | Low -- °F
--% Chance of Precip.
Yesterday
High -- | Low -- °F
Precip. -- in
Pressure 29.78 in
Visibility 10.0 miles
Clouds Few 3300 ft
Mostly Cloudy 5500 ft
Windchill 24 °F
Dew Point 16 °F
Humidity 70%
Rainfall in
Snow Depth Not available.
6:50 AM 5:17 PM
Waxing Crescent, 12% visible
METAR KSNC 111355Z AUTO 28008G18KT 010V020 10SM FEW033 BKN055 M05/M11 A2978 RMK AO2
Pressure 29.78 in
Visibility 10.0 miles
Clouds Few 3300 ft
Mostly Cloudy 5500 ft
Windchill 24 °F
Dew Point 16 °F
Humidity 70%
Rainfall in
Snow Depth Not available.
6:50 AM 5:17 PM
Waxing Crescent, 12% visible
METAR KSNC 111355Z AUTO 28008G18KT 010V020 10SM FEW033 BKN055 M05/M11 A2978 RMK AO2

10-Day Weather Forecast

Almanac

Astronomy

Feb. 11, 2016 Rise Set
Actual Time
Civil Twilight
Nautical Twilight
Astronomical Twilight
Moon
Length of Visible Light
Length of Day
Tomorrow will be .
, % of the Moon is Illuminated

Today's Extremes

State Highs State Lows

Community

WunderPhotos

Upload Photos

1,892,047 photos uploaded!

WunderBlog® & News

Nearby

Air Quality

  Air Quality AQ Index Pollutant
Not available.

Snow Depth

Station Depth Elevation

Earthquake Activity

City Distance Mag. Time & Date
Minimum magnitude displayed is 2.5.

Coastal Water Temperatures

Place Temperature

Stations

Nearby Weather Stations

Station Location Temp. Windchill Dew Point Humidity Wind Precip. Elev Updated Type
                   

Watches & Warnings

There are currently no watches in effect.